createdAt,value
2018-03-26T00:01:31.790Z,33.87
2018-03-26T00:04:00.113Z,40.57
2018-03-26T00:06:27.765Z,42.13
2018-03-26T00:08:55.346Z,41.37
2018-03-26T00:11:23.708Z,36.93
2018-03-26T00:13:51.783Z,37.20
2018-03-26T00:16:20.113Z,38.70
2018-03-26T00:18:49.223Z,35.50
2018-03-26T00:21:18.710Z,41.47
2018-03-26T00:23:47.039Z,46.03
2018-03-26T00:26:14.597Z,41.30
2018-03-26T00:28:43.435Z,39.03
2018-03-26T00:31:11.574Z,41.53
2018-03-26T00:33:39.153Z,37.43
2018-03-26T00:36:06.728Z,41.40
2018-03-26T00:38:34.296Z,37.00
2018-03-26T00:41:02.619Z,42.87
2018-03-26T00:43:30.291Z,40.20
2018-03-26T00:45:58.611Z,36.70
2018-03-26T00:48:26.693Z,40.20
2018-03-26T00:50:54.306Z,40.80
2018-03-26T00:53:33.744Z,44.00
2018-03-26T00:56:01.449Z,48.80
2018-03-26T00:58:30.493Z,43.97
2018-03-26T01:01:02.075Z,40.93
2018-03-26T01:03:30.402Z,49.27
2018-03-26T01:05:58.012Z,41.60
2018-03-26T01:08:25.902Z,43.17
2018-03-26T01:10:53.538Z,48.70
2018-03-26T01:13:21.107Z,45.43
2018-03-26T01:15:48.775Z,48.43
2018-03-26T01:18:17.075Z,46.53
2018-03-26T01:20:44.627Z,42.57
2018-03-26T01:23:13.427Z,43.83
2018-03-26T01:25:43.942Z,47.13
2018-03-26T01:28:12.902Z,44.23
2018-03-26T01:30:42.252Z,49.80
2018-03-26T01:33:09.790Z,43.93
2018-03-26T01:35:37.342Z,52.53
2018-03-26T01:38:05.946Z,47.77
2018-03-26T01:40:33.560Z,49.47
2018-03-26T01:43:02.113Z,46.87
2018-03-26T01:45:29.654Z,49.80
2018-03-26T01:47:57.234Z,47.53
2018-03-26T01:50:25.762Z,49.77
2018-03-26T01:52:54.392Z,47.87
2018-03-26T01:55:21.976Z,51.77
2018-03-26T01:57:50.655Z,51.77
2018-03-26T02:00:18.216Z,45.57
2018-03-26T02:02:46.751Z,57.13
2018-03-26T02:05:15.293Z,54.60
2018-03-26T02:07:44.310Z,47.67
2018-03-26T02:10:12.703Z,43.00
2018-03-26T02:12:41.309Z,44.40
2018-03-26T02:15:09.650Z,46.07
2018-03-26T02:17:37.259Z,50.03
2018-03-26T02:20:04.822Z,51.57
2018-03-26T02:22:32.371Z,46.50
2018-03-26T02:24:59.923Z,52.80
2018-03-26T02:27:27.507Z,49.70
2018-03-26T02:29:55.056Z,51.80
2018-03-26T02:32:22.665Z,47.43
2018-03-26T02:34:51.006Z,47.07
2018-03-26T02:37:18.575Z,50.17
2018-03-26T02:39:46.881Z,52.80
2018-03-26T02:42:14.516Z,53.50
2018-03-26T02:44:42.908Z,56.87
2018-03-26T02:47:12.170Z,57.80
2018-03-26T02:49:39.743Z,51.80
2018-03-26T02:52:07.297Z,49.67
2018-03-26T02:54:36.171Z,51.10
2018-03-26T02:57:03.773Z,50.93
2018-03-26T02:59:31.317Z,43.43
2018-03-26T03:01:58.889Z,53.37
2018-03-26T03:04:26.818Z,47.43
2018-03-26T03:06:54.365Z,47.87
2018-03-26T03:09:21.893Z,50.30
2018-03-26T03:11:49.468Z,48.00
2018-03-26T03:14:17.827Z,45.43
2018-03-26T03:16:46.171Z,48.13
2018-03-26T03:19:13.788Z,43.87
2018-03-26T03:21:42.320Z,49.63
2018-03-26T03:24:10.032Z,56.27
2018-03-26T03:26:38.358Z,54.47
2018-03-26T03:29:05.963Z,50.57
2018-03-26T03:31:33.559Z,52.93
2018-03-26T03:34:01.115Z,58.30
2018-03-26T03:36:29.435Z,49.43
2018-03-26T03:38:57.330Z,52.20
2018-03-26T03:41:24.878Z,54.60
2018-03-26T03:43:52.496Z,50.70
2018-03-26T03:46:20.137Z,55.73
2018-03-26T03:48:47.752Z,58.43
2018-03-26T03:51:15.323Z,47.73
2018-03-26T03:53:43.380Z,51.43
2018-03-26T03:56:11.175Z,54.00
2018-03-26T03:58:38.798Z,67.27
2018-03-26T04:01:06.405Z,60.23
2018-03-26T04:03:34.008Z,64.60
2018-03-26T04:06:01.571Z,51.60
2018-03-26T04:08:29.131Z,53.73
2018-03-26T04:10:56.700Z,61.40
2018-03-26T04:13:25.048Z,63.57
2018-03-26T04:15:52.586Z,63.50
2018-03-26T04:18:20.182Z,59.37
2018-03-26T04:20:47.718Z,49.37
2018-03-26T04:23:15.370Z,60.27
2018-03-26T04:25:43.346Z,54.83
2018-03-26T04:28:11.181Z,61.20
2018-03-26T04:30:38.785Z,61.63
2018-03-26T04:33:06.342Z,120.67
2018-03-26T04:35:33.907Z,50.87
2018-03-26T04:38:01.482Z,56.23
2018-03-26T04:40:29.087Z,61.40
2018-03-26T04:42:56.655Z,59.47
2018-03-26T04:45:24.690Z,63.57
2018-03-26T04:47:52.246Z,64.80
2018-03-26T04:50:19.896Z,63.73
2018-03-26T04:52:47.518Z,65.33
2018-03-26T04:55:15.075Z,62.43
2018-03-26T04:57:43.632Z,67.13
2018-03-26T05:00:11.968Z,66.83
2018-03-26T05:02:39.526Z,63.27
2018-03-26T05:05:07.195Z,62.47
2018-03-26T05:07:34.758Z,65.40
2018-03-26T05:10:03.092Z,60.67
2018-03-26T05:12:30.966Z,72.90
2018-03-26T05:14:59.292Z,62.03
2018-03-26T05:17:26.943Z,62.93
2018-03-26T05:19:54.490Z,60.47
2018-03-26T05:22:22.068Z,69.53
2018-03-26T05:24:50.708Z,71.63
2018-03-26T05:27:19.251Z,69.13
2018-03-26T05:29:46.796Z,67.90
2018-03-26T05:32:14.415Z,68.80
2018-03-26T05:34:42.835Z,79.63
2018-03-26T05:37:11.864Z,72.50
2018-03-26T05:39:39.459Z,67.87
2018-03-26T05:42:07.783Z,79.43
2018-03-26T05:44:35.354Z,65.00
2018-03-26T05:47:02.899Z,66.90
2018-03-26T05:49:30.515Z,68.27
2018-03-26T05:51:58.147Z,65.43
2018-03-26T05:54:25.707Z,60.70
2018-03-26T05:56:53.388Z,69.87
2018-03-26T05:59:21.763Z,60.10
2018-03-26T06:01:49.355Z,67.20
2018-03-26T06:04:16.924Z,70.30
2018-03-26T06:06:44.555Z,65.87
2018-03-26T06:09:13.353Z,74.10
2018-03-26T06:11:41.641Z,60.93
2018-03-26T06:14:09.246Z,59.83
2018-03-26T06:16:49.360Z,67.50
2018-03-26T06:19:16.998Z,64.83
2018-03-26T06:21:44.568Z,72.63
2018-03-26T06:24:13.349Z,63.27
2018-03-26T06:26:42.455Z,67.83
2018-03-26T06:29:10.109Z,56.13
2018-03-26T06:31:37.672Z,60.73
2018-03-26T06:34:05.226Z,67.23
2018-03-26T06:39:37.198Z,77.33
2018-03-26T06:42:05.091Z,67.43
2018-03-26T06:44:33.498Z,71.37
2018-03-26T06:47:01.104Z,56.00
2018-03-26T06:49:29.823Z,63.57
2018-03-26T06:51:57.368Z,71.17
2018-03-26T06:54:25.047Z,71.77
2018-03-26T06:56:52.643Z,59.27
2018-03-26T06:59:23.005Z,64.27
2018-03-26T07:01:50.565Z,77.00
2018-03-26T07:04:18.287Z,62.20
2018-03-26T07:06:45.973Z,62.83
2018-03-26T07:09:14.297Z,62.33
2018-03-26T07:11:42.969Z,69.27
2018-03-26T07:14:11.380Z,66.33
2018-03-26T07:16:38.933Z,65.17
2018-03-26T07:19:06.995Z,71.47
2018-03-26T07:21:34.571Z,57.77
2018-03-26T07:24:02.123Z,62.20
2018-03-26T07:26:29.803Z,64.00
2018-03-26T07:28:57.344Z,66.23
2018-03-26T07:31:25.180Z,71.03
2018-03-26T07:33:52.778Z,67.37
2018-03-26T07:36:21.161Z,66.23
2018-03-26T07:38:48.718Z,68.40
2018-03-26T07:41:16.337Z,71.27
2018-03-26T07:43:43.892Z,88.77
2018-03-26T07:46:12.356Z,63.40
2018-03-26T07:48:40.207Z,68.03
2018-03-26T07:51:07.759Z,58.77
2018-03-26T07:53:36.245Z,62.30
2018-03-26T07:56:03.843Z,71.13
2018-03-26T07:58:32.186Z,67.43
2018-03-26T08:00:59.729Z,66.03
2018-03-26T08:03:27.435Z,60.70
2018-03-26T08:05:55.961Z,60.23
2018-03-26T08:08:24.319Z,61.70
2018-03-26T08:10:52.724Z,64.80
2018-03-26T08:13:20.286Z,61.00
2018-03-26T08:15:48.637Z,59.87
2018-03-26T08:18:16.265Z,62.03
2018-03-26T08:20:43.885Z,53.57
2018-03-26T08:23:13.460Z,58.33
2018-03-26T08:25:42.054Z,57.70
2018-03-26T08:28:09.777Z,63.30
2018-03-26T08:30:39.751Z,58.50
2018-03-26T08:33:07.408Z,52.77
2018-03-26T08:35:34.971Z,62.60
2018-03-26T08:38:03.290Z,62.30
2018-03-26T08:40:31.281Z,67.00
2018-03-26T08:42:59.809Z,74.60
2018-03-26T08:45:27.369Z,58.13
2018-03-26T08:47:55.134Z,59.70
2018-03-26T08:50:23.511Z,62.30
2018-03-26T08:52:51.118Z,62.73
2018-03-26T08:55:19.748Z,70.03
2018-03-26T08:57:48.258Z,59.67
2018-03-26T09:00:16.597Z,63.70
2018-03-26T09:02:44.204Z,58.70
2018-03-26T09:05:12.199Z,61.20
2018-03-26T09:07:41.213Z,66.00
2018-03-26T09:10:08.803Z,59.70
2018-03-26T09:12:36.360Z,59.23
2018-03-26T09:15:04.779Z,54.30
2018-03-26T09:17:32.395Z,62.57
2018-03-26T09:19:59.992Z,65.97
2018-03-26T09:22:27.586Z,64.53
2018-03-26T09:24:55.230Z,74.73
2018-03-26T09:27:22.816Z,50.93
2018-03-26T09:29:50.383Z,52.87
2018-03-26T09:32:19.068Z,63.00
2018-03-26T09:34:48.602Z,58.70
2018-03-26T09:37:16.134Z,53.83
2018-03-26T09:39:43.738Z,64.77
2018-03-26T09:42:12.310Z,53.87
2018-03-26T09:44:40.024Z,53.27
2018-03-26T09:47:07.605Z,71.60
2018-03-26T09:49:35.188Z,54.17
2018-03-26T09:52:03.616Z,57.17
2018-03-26T09:54:31.175Z,59.00
2018-03-26T09:57:00.638Z,70.03
2018-03-26T09:59:29.209Z,66.67
2018-03-26T10:01:57.656Z,57.87
2018-03-26T10:04:25.206Z,73.03
2018-03-26T10:06:53.274Z,57.03
2018-03-26T10:09:20.826Z,54.73
2018-03-26T10:11:48.619Z,68.97
2018-03-26T10:14:17.197Z,60.50
2018-03-26T10:16:45.725Z,54.83
2018-03-26T10:19:13.305Z,60.77
2018-03-26T10:21:42.434Z,60.57
2018-03-26T10:24:10.019Z,56.07
2018-03-26T10:26:37.577Z,63.03
2018-03-26T10:29:06.652Z,63.30
2018-03-26T10:31:34.645Z,59.77
2018-03-26T10:34:02.234Z,59.23
2018-03-26T10:36:29.835Z,69.57
2018-03-26T10:38:58.179Z,59.23
2018-03-26T10:41:26.487Z,59.50
2018-03-26T10:43:54.074Z,68.43
2018-03-26T10:46:21.634Z,58.07
2018-03-26T10:48:49.242Z,60.83
2018-03-26T10:51:17.847Z,55.60
2018-03-26T10:53:45.427Z,62.40
2018-03-26T10:56:13.341Z,62.90
2018-03-26T10:58:41.193Z,61.27
2018-03-26T11:01:09.673Z,61.03
2018-03-26T11:03:37.306Z,60.73
2018-03-26T11:06:04.917Z,57.53
2018-03-26T11:08:32.508Z,63.40
2018-03-26T11:11:00.209Z,52.80
2018-03-26T11:13:29.491Z,56.73
2018-03-26T11:15:58.330Z,62.73
2018-03-26T11:18:25.979Z,55.10
2018-03-26T11:20:53.534Z,63.43
2018-03-26T11:23:21.441Z,65.53
2018-03-26T11:25:49.119Z,55.07
2018-03-26T11:28:17.371Z,63.57
2018-03-26T11:30:45.273Z,54.33
2018-03-26T11:33:13.651Z,55.70
2018-03-26T11:35:41.805Z,59.37
2018-03-26T11:38:09.457Z,57.37
2018-03-26T11:40:37.047Z,70.80
2018-03-26T11:43:05.674Z,53.80
2018-03-26T11:45:33.269Z,53.23
2018-03-26T11:48:01.751Z,57.63
2018-03-26T11:50:29.469Z,62.73
2018-03-26T11:52:57.113Z,57.03
2018-03-26T11:55:24.967Z,61.73
2018-03-26T11:57:52.608Z,65.37
2018-03-26T12:00:20.295Z,68.53
2018-03-26T12:02:47.912Z,62.70
2018-03-26T12:05:17.549Z,57.33
2018-03-26T12:07:45.107Z,58.47
2018-03-26T12:10:13.718Z,65.23
2018-03-26T12:12:42.429Z,60.50
2018-03-26T12:15:09.977Z,61.87
2018-03-26T12:17:38.335Z,59.27
2018-03-26T12:20:25.515Z,68.03
2018-03-26T12:22:53.090Z,68.80
2018-03-26T12:25:21.485Z,65.67
2018-03-26T12:28:01.248Z,61.60
2018-03-26T12:30:28.842Z,62.30
2018-03-26T12:32:56.439Z,60.00
2018-03-26T12:35:36.161Z,60.63
2018-03-26T12:38:03.753Z,65.03
2018-03-26T12:40:43.036Z,62.27
2018-03-26T12:43:11.365Z,65.40
2018-03-26T12:45:50.647Z,65.70
2018-03-26T12:48:18.991Z,65.03
2018-03-26T12:50:58.433Z,69.10
2018-03-26T12:53:26.745Z,63.60
2018-03-26T12:55:54.324Z,60.83
2018-03-26T12:58:33.882Z,56.60
2018-03-26T13:01:13.334Z,69.13
2018-03-26T13:03:41.201Z,61.60
2018-03-26T13:06:08.829Z,62.40
2018-03-26T13:08:36.387Z,61.13
2018-03-26T13:11:04.760Z,54.50
2018-03-26T13:13:33.142Z,54.10
2018-03-26T13:16:01.068Z,63.80
2018-03-26T13:18:29.397Z,60.50
2018-03-26T13:20:57.095Z,66.57
2018-03-26T13:23:24.671Z,76.83
2018-03-26T13:25:52.314Z,65.73
2018-03-26T13:28:19.890Z,59.17
2018-03-26T13:30:48.394Z,56.43
2018-03-26T13:33:15.963Z,59.20
2018-03-26T13:35:44.563Z,63.13
2018-03-26T13:38:13.481Z,63.07
2018-03-26T13:40:42.771Z,61.33
2018-03-26T13:43:10.379Z,64.40
2018-03-26T13:45:41.655Z,73.23
2018-03-26T13:48:09.242Z,69.30
2018-03-26T13:50:37.591Z,71.00
2018-03-26T13:53:05.342Z,64.57
2018-03-26T13:55:33.827Z,63.57
2018-03-26T13:58:01.420Z,65.03
2018-03-26T14:00:33.998Z,62.40
2018-03-26T14:03:01.668Z,64.37
2018-03-26T14:05:37.696Z,63.07
2018-03-26T14:08:05.429Z,59.03
2018-03-26T14:10:45.911Z,62.20
2018-03-26T14:13:28.403Z,61.70
2018-03-26T14:19:14.232Z,72.53
2018-03-26T14:21:42.213Z,71.90
2018-03-26T14:24:10.036Z,60.87
2018-03-26T14:26:39.166Z,68.07
2018-03-26T14:29:08.737Z,63.30
2018-03-26T14:31:36.297Z,67.60
2018-03-26T14:34:03.911Z,63.37
2018-03-26T14:36:36.416Z,63.80
2018-03-26T14:39:04.378Z,63.40
2018-03-26T14:41:40.100Z,66.87
2018-03-26T14:44:09.293Z,63.53
2018-03-26T14:46:36.901Z,76.03
2018-03-26T14:49:05.227Z,67.57
2018-03-26T14:51:33.146Z,68.43
2018-03-26T14:54:00.713Z,64.07
2018-03-26T14:56:29.633Z,70.97
2018-03-26T14:58:58.582Z,64.23
2018-03-26T15:01:26.151Z,63.87
2018-03-26T15:04:01.444Z,62.97
2018-03-26T15:06:29.700Z,66.63
2018-03-26T15:08:57.697Z,66.70
2018-03-26T15:11:25.700Z,78.37
2018-03-26T15:13:53.276Z,71.83
2018-03-26T15:16:20.973Z,70.90
2018-03-26T15:18:49.441Z,70.50
2018-03-26T15:21:16.985Z,72.47
2018-03-26T15:23:44.550Z,69.17
2018-03-26T15:26:13.215Z,70.47
2018-03-26T15:28:40.806Z,64.67
2018-03-26T15:31:08.446Z,65.07
2018-03-26T15:33:36.959Z,74.10
2018-03-26T15:36:04.556Z,69.57
2018-03-26T15:38:32.132Z,63.93
2018-03-26T15:40:59.763Z,68.47
2018-03-26T15:43:28.026Z,67.57
2018-03-26T15:45:55.575Z,68.77
2018-03-26T15:48:24.445Z,68.03
2018-03-26T15:50:52.022Z,63.27
2018-03-26T15:53:20.541Z,59.50
2018-03-26T15:55:48.442Z,72.90
2018-03-26T15:58:16.090Z,75.13
2018-03-26T16:00:43.655Z,67.60
2018-03-26T16:03:16.887Z,72.07
2018-03-26T16:05:46.245Z,71.17
2018-03-26T16:08:13.863Z,65.70
2018-03-26T16:10:41.451Z,64.00
2018-03-26T16:13:09.792Z,65.00
2018-03-26T16:15:37.359Z,63.00
2018-03-26T16:18:05.319Z,64.13
2018-03-26T16:20:32.941Z,60.00
2018-03-26T16:23:00.504Z,61.87
2018-03-26T16:25:28.820Z,65.33
2018-03-26T16:27:57.518Z,69.93
2018-03-26T16:30:25.172Z,63.53
2018-03-26T16:32:53.520Z,64.03
2018-03-26T16:35:21.908Z,62.40
2018-03-26T16:37:49.571Z,61.40
2018-03-26T16:40:17.202Z,66.53
2018-03-26T16:42:44.811Z,64.10
2018-03-26T16:45:13.159Z,67.83
2018-03-26T16:47:40.772Z,66.40
2018-03-26T16:50:09.122Z,75.40
2018-03-26T16:52:36.777Z,70.30
2018-03-26T16:55:06.061Z,69.90
2018-03-26T16:57:33.625Z,68.77
2018-03-26T17:00:02.038Z,66.87
2018-03-26T17:02:30.616Z,61.93
2018-03-26T17:04:58.736Z,66.93
2018-03-26T17:07:26.339Z,69.20
2018-03-26T17:09:54.702Z,60.17
2018-03-26T17:12:22.297Z,62.13
2018-03-26T17:14:50.215Z,58.50
2018-03-26T17:17:17.782Z,61.63
2018-03-26T17:19:45.369Z,57.20
2018-03-26T17:22:12.982Z,59.63
2018-03-26T17:24:40.659Z,64.33
2018-03-26T17:27:08.283Z,60.93
2018-03-26T17:29:35.967Z,71.33
2018-03-26T17:32:05.320Z,64.60
2018-03-26T17:34:33.465Z,61.27
2018-03-26T17:37:01.141Z,72.60
2018-03-26T17:39:29.429Z,68.40
2018-03-26T17:41:57.491Z,68.50
2018-03-26T17:44:25.123Z,53.03
2018-03-26T17:46:52.679Z,60.30
2018-03-26T17:49:20.726Z,86.73
2018-03-26T17:51:48.319Z,75.57
2018-03-26T17:54:16.664Z,62.07
2018-03-26T17:56:44.647Z,72.37
2018-03-26T17:59:12.986Z,59.33
2018-03-26T18:01:41.493Z,68.77
2018-03-26T18:04:09.085Z,72.83
2018-03-26T18:06:36.627Z,71.87
2018-03-26T18:09:04.298Z,75.67
2018-03-26T18:11:33.028Z,83.37
2018-03-26T18:14:01.368Z,81.63
2018-03-26T18:16:29.902Z,81.63
2018-03-26T18:18:58.358Z,80.00
2018-03-26T18:21:25.984Z,76.60
2018-03-26T18:23:54.327Z,81.40
2018-03-26T18:26:21.973Z,92.33
2018-03-26T18:28:50.515Z,80.53
2018-03-26T18:31:18.089Z,86.83
2018-03-26T18:33:46.496Z,81.33
2018-03-26T18:36:15.763Z,79.53
2018-03-26T18:38:44.651Z,83.00
2018-03-26T18:41:13.446Z,80.13
2018-03-26T18:43:41.946Z,76.13
2018-03-26T18:46:09.571Z,85.47
2018-03-26T18:48:37.174Z,80.57
2018-03-26T18:51:04.776Z,86.63
2018-03-26T18:53:32.364Z,85.73
2018-03-26T18:55:59.948Z,81.93
2018-03-26T18:58:28.174Z,87.80
2018-03-26T19:00:55.740Z,86.50
2018-03-26T19:03:23.444Z,90.00
2018-03-26T19:05:51.031Z,83.53
2018-03-26T19:08:18.650Z,88.47
2018-03-26T19:10:46.647Z,84.17
2018-03-26T19:13:15.897Z,84.30
2018-03-26T19:15:43.494Z,84.40
2018-03-26T19:18:11.622Z,88.60
2018-03-26T19:20:39.182Z,91.13
2018-03-26T19:23:07.550Z,72.73
2018-03-26T19:25:35.198Z,73.40
2018-03-26T19:28:02.827Z,78.83
2018-03-26T19:30:31.569Z,76.77
2018-03-26T19:33:00.070Z,83.63
2018-03-26T19:35:33.879Z,82.00
2018-03-26T19:38:02.230Z,83.67
2018-03-26T19:40:30.290Z,87.27
2018-03-26T19:42:58.771Z,91.23
2018-03-26T19:45:26.391Z,83.13
2018-03-26T19:47:54.009Z,88.83
2018-03-26T19:50:21.867Z,91.47
2018-03-26T19:52:49.427Z,86.33
2018-03-26T19:55:17.901Z,90.50
2018-03-26T19:57:47.229Z,88.57
2018-03-26T20:00:14.955Z,84.67
2018-03-26T20:02:43.551Z,86.63
2018-03-26T20:05:12.267Z,97.27
2018-03-26T20:07:40.636Z,88.93
2018-03-26T20:10:09.036Z,93.63
2018-03-26T20:12:36.726Z,100.57
2018-03-26T20:15:04.419Z,93.87
2018-03-26T20:17:32.807Z,95.63
2018-03-26T20:20:00.503Z,89.40
2018-03-26T20:22:28.661Z,99.43
2018-03-26T20:24:57.664Z,96.83
2018-03-26T20:27:27.636Z,100.30
2018-03-26T20:29:55.963Z,104.77
2018-03-26T20:32:23.522Z,108.43
2018-03-26T20:34:51.139Z,108.47
2018-03-26T20:37:19.913Z,103.30
2018-03-26T20:39:48.625Z,99.67
2018-03-26T20:42:16.998Z,105.90
2018-03-26T20:44:45.572Z,105.70
2018-03-26T20:47:17.636Z,103.53
2018-03-26T20:49:46.012Z,94.53
2018-03-26T20:52:13.872Z,103.03
2018-03-26T20:54:45.168Z,108.87
2018-03-26T20:57:14.453Z,108.30
2018-03-26T20:59:44.226Z,107.00
2018-03-26T21:02:12.527Z,104.30
2018-03-26T21:04:43.160Z,109.03
2018-03-26T21:07:10.793Z,110.03
2018-03-26T21:09:39.600Z,110.83
2018-03-26T21:12:09.827Z,103.33
2018-03-26T21:14:40.861Z,112.07
2018-03-26T21:17:15.103Z,102.37
2018-03-26T21:19:43.594Z,101.70
2018-03-26T21:22:21.110Z,108.60
2018-03-26T21:24:50.446Z,112.57
2018-03-26T21:27:23.229Z,107.00
2018-03-26T21:29:51.711Z,105.73
2018-03-26T21:32:21.201Z,102.70
2018-03-26T21:34:49.872Z,107.67
2018-03-26T21:37:17.485Z,108.70
2018-03-26T21:39:45.031Z,106.77
2018-03-26T21:42:12.991Z,115.67
2018-03-26T21:44:41.351Z,110.10
2018-03-26T21:47:09.683Z,121.63
2018-03-26T21:49:37.587Z,117.80
2018-03-26T21:52:05.178Z,121.10
2018-03-26T21:54:32.723Z,108.70
2018-03-26T21:57:01.476Z,101.77
2018-03-26T21:59:29.143Z,111.60
2018-03-26T22:01:56.707Z,101.27
2018-03-26T22:04:24.298Z,105.50
2018-03-26T22:06:51.843Z,107.23
2018-03-26T22:09:20.221Z,103.83
2018-03-26T22:11:48.608Z,116.70
2018-03-26T22:14:16.926Z,123.60
2018-03-26T22:16:44.811Z,107.13
2018-03-26T22:19:12.389Z,111.73
2018-03-26T22:21:41.116Z,109.43
2018-03-26T22:24:09.113Z,115.43
2018-03-26T22:26:37.432Z,99.77
2018-03-26T22:29:05.853Z,106.40
2018-03-26T22:31:33.461Z,110.50
2018-03-26T22:34:01.783Z,112.57
2018-03-26T22:36:29.452Z,100.00
2018-03-26T22:38:57.062Z,102.47
2018-03-26T22:41:25.440Z,94.03
2018-03-26T22:43:53.758Z,105.47
2018-03-26T22:46:22.407Z,100.63
2018-03-26T22:48:51.688Z,94.27
2018-03-26T22:51:19.305Z,95.53
2018-03-26T22:53:47.221Z,99.53
2018-03-26T22:56:14.773Z,95.60
2018-03-26T22:58:42.332Z,89.57
2018-03-26T23:01:10.008Z,102.53
2018-03-26T23:03:38.716Z,101.20
2018-03-26T23:06:07.480Z,107.27
2018-03-26T23:08:36.100Z,94.60
2018-03-26T23:11:05.246Z,94.47
2018-03-26T23:13:33.328Z,100.27
2018-03-26T23:16:02.228Z,106.87
2018-03-26T23:18:30.563Z,103.40
2018-03-26T23:21:00.092Z,117.37
2018-03-26T23:23:27.701Z,99.70
2018-03-26T23:25:55.564Z,97.93
2018-03-26T23:28:23.202Z,105.73
2018-03-26T23:30:51.477Z,101.73
2018-03-26T23:33:19.117Z,98.73
2018-03-26T23:35:49.788Z,102.93
2018-03-26T23:38:17.439Z,105.67
2018-03-26T23:40:45.906Z,109.23
2018-03-26T23:43:13.499Z,104.80
2018-03-26T23:45:41.159Z,97.60
2018-03-26T23:48:11.543Z,106.90
2018-03-26T23:50:39.100Z,120.23
2018-03-26T23:53:07.808Z,105.27
2018-03-26T23:55:36.148Z,105.43
2018-03-26T23:58:05.405Z,114.90
